createdAt,value
2022-12-25T00:04:35.583Z,63.39
2022-12-25T00:07:23.267Z,64.42
2022-12-25T00:10:10.842Z,63.56
2022-12-25T00:12:58.446Z,62.58
2022-12-25T00:15:48.263Z,61.88
2022-12-25T00:18:35.899Z,60.57
2022-12-25T00:21:23.477Z,60.39
2022-12-25T00:24:11.064Z,60.46
2022-12-25T00:26:58.615Z,59.49
2022-12-25T00:29:46.216Z,59.05
2022-12-25T00:32:33.765Z,59.88
2022-12-25T00:35:21.338Z,61.14
2022-12-25T00:38:08.914Z,61.83
2022-12-25T00:40:56.466Z,60.54
2022-12-25T00:43:44.188Z,60.06
2022-12-25T00:46:31.794Z,60.09
2022-12-25T00:49:19.361Z,59.33
2022-12-25T00:52:06.958Z,59.56
2022-12-25T00:54:54.533Z,58.76
2022-12-25T00:57:42.105Z,63.17
2022-12-25T01:00:29.722Z,68.94
2022-12-25T01:03:17.359Z,71.21
2022-12-25T01:06:05.029Z,71.36
2022-12-25T01:08:52.642Z,69.63
2022-12-25T01:11:40.330Z,72.37
2022-12-25T01:14:29.902Z,75.79
2022-12-25T01:17:17.500Z,74.22
2022-12-25T01:20:05.052Z,72.58
2022-12-25T01:22:52.628Z,70.68
2022-12-25T01:25:40.197Z,68.93
2022-12-25T01:28:27.793Z,68.05
2022-12-25T01:31:15.440Z,67.02
2022-12-25T01:34:03.103Z,66.07
2022-12-25T01:36:50.653Z,64.71
2022-12-25T01:39:38.250Z,63.37
2022-12-25T01:42:25.819Z,62.18
2022-12-25T01:45:13.381Z,62.04
2022-12-25T01:48:01.004Z,61.73
2022-12-25T01:50:48.569Z,63.52
2022-12-25T01:53:36.169Z,65.82
2022-12-25T01:56:23.721Z,65.69
2022-12-25T01:59:11.285Z,65.68
2022-12-25T02:01:59.063Z,64.90
2022-12-25T02:04:46.848Z,64.50
2022-12-25T02:07:34.426Z,64.97
2022-12-25T02:10:22.027Z,63.76
2022-12-25T02:13:09.640Z,65.06
2022-12-25T02:15:57.179Z,68.20
2022-12-25T02:18:44.839Z,71.25
2022-12-25T02:21:32.394Z,76.96
2022-12-25T02:24:19.996Z,79.34
2022-12-25T02:27:07.574Z,81.72
2022-12-25T02:29:55.178Z,84.38
2022-12-25T02:32:42.822Z,85.96
2022-12-25T02:35:30.530Z,83.26
2022-12-25T02:38:18.114Z,82.26
2022-12-25T02:41:05.695Z,82.11
2022-12-25T02:43:53.284Z,81.80
2022-12-25T02:46:40.897Z,79.69
2022-12-25T02:49:28.483Z,76.46
2022-12-25T02:52:16.092Z,72.99
2022-12-25T02:55:03.635Z,70.25
2022-12-25T02:57:51.225Z,71.06
2022-12-25T03:00:38.770Z,69.21
2022-12-25T03:03:28.464Z,68.57
2022-12-25T03:06:16.073Z,70.21
2022-12-25T03:09:03.630Z,71.27
2022-12-25T03:11:51.199Z,70.11
2022-12-25T03:14:38.807Z,67.86
2022-12-25T03:17:26.399Z,67.08
2022-12-25T03:20:13.965Z,65.52
2022-12-25T03:23:01.561Z,65.21
2022-12-25T03:25:49.175Z,65.49
2022-12-25T03:28:36.756Z,66.44
2022-12-25T03:31:24.414Z,67.04
2022-12-25T03:34:12.011Z,69.23
2022-12-25T03:36:59.602Z,69.55
2022-12-25T03:39:47.173Z,70.05
2022-12-25T03:42:34.798Z,68.96
2022-12-25T03:45:22.383Z,67.73
2022-12-25T03:48:09.979Z,67.18
2022-12-25T03:50:57.577Z,66.54
2022-12-25T03:53:45.168Z,67.77
2022-12-25T03:56:32.751Z,67.01
2022-12-25T03:59:23.775Z,67.15
2022-12-25T04:02:11.913Z,69.24
2022-12-25T04:04:59.635Z,68.88
2022-12-25T04:07:47.192Z,70.18
2022-12-25T04:10:34.784Z,68.08
2022-12-25T04:13:42.315Z,67.90
2022-12-25T04:16:49.880Z,67.79
2022-12-25T04:19:52.746Z,72.44
2022-12-25T04:22:54.124Z,76.92
2022-12-25T04:25:41.697Z,80.01
2022-12-25T04:28:29.309Z,77.95
2022-12-25T04:31:16.972Z,79.73
2022-12-25T04:34:04.681Z,74.37
2022-12-25T04:36:52.282Z,72.19
2022-12-25T04:39:39.838Z,69.74
2022-12-25T04:42:27.433Z,68.11
2022-12-25T04:45:15.018Z,69.60
2022-12-25T04:48:02.702Z,72.18
2022-12-25T04:50:52.285Z,70.05
2022-12-25T04:53:39.872Z,80.30
2022-12-25T04:56:27.475Z,72.65
2022-12-25T04:59:15.032Z,70.39
2022-12-25T05:02:02.889Z,75.13
2022-12-25T05:04:50.648Z,75.76
2022-12-25T05:07:38.223Z,72.03
2022-12-25T05:10:25.792Z,74.33
2022-12-25T05:13:13.392Z,77.03
2022-12-25T05:16:01.005Z,75.94
2022-12-25T05:18:50.621Z,73.46
2022-12-25T05:21:38.193Z,71.82
2022-12-25T05:24:25.776Z,72.63
2022-12-25T05:27:13.340Z,82.52
2022-12-25T05:30:00.940Z,93.54
2022-12-25T05:32:48.515Z,99.18
2022-12-25T05:35:36.114Z,98.07
2022-12-25T05:38:23.673Z,98.75
2022-12-25T05:41:11.248Z,98.90
2022-12-25T05:43:58.817Z,100.00
2022-12-25T05:46:46.566Z,100.00
2022-12-25T05:49:34.140Z,100.00
2022-12-25T05:52:21.740Z,99.03
2022-12-25T05:55:09.293Z,93.56
2022-12-25T05:57:56.870Z,84.91
2022-12-25T06:00:44.543Z,79.47
2022-12-25T06:03:32.143Z,76.69
2022-12-25T06:06:19.762Z,74.91
2022-12-25T06:09:07.322Z,73.77
2022-12-25T06:11:54.917Z,70.65
2022-12-25T06:14:42.492Z,71.04
2022-12-25T06:17:30.099Z,69.18
2022-12-25T06:20:17.700Z,68.33
2022-12-25T06:23:05.274Z,68.96
2022-12-25T06:25:52.841Z,67.59
2022-12-25T06:28:40.417Z,65.75
2022-12-25T06:31:28.043Z,64.04
2022-12-25T06:34:15.641Z,64.60
2022-12-25T06:37:03.218Z,61.59
2022-12-25T06:39:50.766Z,63.00
2022-12-25T06:42:38.360Z,62.29
2022-12-25T06:45:25.987Z,62.21
2022-12-25T06:48:13.584Z,61.89
2022-12-25T06:51:01.139Z,62.70
2022-12-25T06:53:48.718Z,64.19
2022-12-25T06:56:36.276Z,63.44
2022-12-25T06:59:23.878Z,62.18
2022-12-25T07:02:11.588Z,61.46
2022-12-25T07:04:59.379Z,63.29
2022-12-25T07:07:46.920Z,63.60
2022-12-25T07:10:34.518Z,63.49
2022-12-25T07:13:22.091Z,62.94
2022-12-25T07:16:09.742Z,62.26
2022-12-25T07:18:57.360Z,62.59
2022-12-25T07:21:44.969Z,62.41
2022-12-25T07:24:32.560Z,62.45
2022-12-25T07:27:20.106Z,62.11
2022-12-25T07:30:07.671Z,61.35
2022-12-25T07:32:55.242Z,60.59
2022-12-25T07:35:42.779Z,61.01
2022-12-25T07:38:30.368Z,61.12
2022-12-25T07:41:18.227Z,61.57
2022-12-25T07:44:05.807Z,62.38
2022-12-25T07:46:53.415Z,61.90
2022-12-25T07:49:43.125Z,61.84
2022-12-25T07:52:30.715Z,61.60
2022-12-25T07:55:18.328Z,63.77
2022-12-25T07:58:07.110Z,63.40
2022-12-25T08:00:54.988Z,62.37
2022-12-25T08:03:42.728Z,63.91
2022-12-25T08:06:30.455Z,64.24
2022-12-25T08:09:18.035Z,64.69
2022-12-25T08:12:05.615Z,65.14
2022-12-25T08:14:53.193Z,64.83
2022-12-25T08:17:40.787Z,63.62
2022-12-25T08:20:28.338Z,64.62
2022-12-25T08:23:15.941Z,63.55
2022-12-25T08:26:05.370Z,63.82
2022-12-25T08:28:53.392Z,63.15
2022-12-25T08:31:45.883Z,63.57
2022-12-25T08:34:36.143Z,64.37
2022-12-25T08:37:23.811Z,64.02
2022-12-25T08:40:11.384Z,63.72
2022-12-25T08:42:58.973Z,63.65
2022-12-25T08:45:46.616Z,64.31
2022-12-25T08:48:34.192Z,64.57
2022-12-25T08:51:21.792Z,63.67
2022-12-25T08:54:09.373Z,63.52
2022-12-25T08:57:02.420Z,63.03
2022-12-25T08:59:50.691Z,62.22
2022-12-25T09:02:38.426Z,61.98
2022-12-25T09:05:26.167Z,61.77
2022-12-25T09:08:15.094Z,61.68
2022-12-25T09:11:02.675Z,62.32
2022-12-25T09:13:50.366Z,63.00
2022-12-25T09:16:37.936Z,62.41
2022-12-25T09:19:25.760Z,62.61
2022-12-25T09:22:13.378Z,61.83
2022-12-25T09:25:00.931Z,62.04
2022-12-25T09:27:48.495Z,61.31
2022-12-25T09:30:36.157Z,61.37
2022-12-25T09:33:23.809Z,61.20
2022-12-25T09:36:11.367Z,62.52
2022-12-25T09:38:58.997Z,62.07
2022-12-25T09:41:46.551Z,61.80
2022-12-25T09:44:34.146Z,62.61
2022-12-25T09:47:21.706Z,63.28
2022-12-25T09:50:09.265Z,62.94
2022-12-25T09:52:56.824Z,63.20
2022-12-25T09:55:44.407Z,63.48
2022-12-25T09:58:31.992Z,62.86
2022-12-25T10:01:19.741Z,62.87
2022-12-25T10:04:07.397Z,62.40
2022-12-25T10:06:54.981Z,61.71
2022-12-25T10:09:42.573Z,61.56
2022-12-25T10:12:30.260Z,61.58
2022-12-25T10:15:17.899Z,61.23
2022-12-25T10:18:05.502Z,61.55
2022-12-25T10:20:53.109Z,61.58
2022-12-25T10:23:40.714Z,61.75
2022-12-25T10:26:28.334Z,61.33
2022-12-25T10:29:15.898Z,61.57
2022-12-25T10:32:03.475Z,60.85
2022-12-25T10:34:51.008Z,60.68
2022-12-25T10:37:38.578Z,59.97
2022-12-25T10:40:26.162Z,59.58
2022-12-25T10:43:13.748Z,59.66
2022-12-25T10:46:01.353Z,59.16
2022-12-25T10:48:48.957Z,59.22
2022-12-25T10:51:36.516Z,59.27
2022-12-25T10:54:24.076Z,58.67
2022-12-25T10:57:11.633Z,58.76
2022-12-25T10:59:59.210Z,58.47
2022-12-25T11:02:46.912Z,58.37
2022-12-25T11:05:34.629Z,57.49
2022-12-25T11:08:22.207Z,57.81
2022-12-25T11:11:09.799Z,57.20
2022-12-25T11:13:57.358Z,57.42
2022-12-25T11:16:44.970Z,59.96
2022-12-25T11:19:32.554Z,61.11
2022-12-25T11:22:20.161Z,61.60
2022-12-25T11:25:07.714Z,60.36
2022-12-25T11:27:55.305Z,61.68
2022-12-25T11:30:42.892Z,62.37
2022-12-25T11:33:30.451Z,64.22
2022-12-25T11:36:18.018Z,64.93
2022-12-25T11:39:05.603Z,64.89
2022-12-25T11:41:53.165Z,63.70
2022-12-25T11:44:40.727Z,62.92
2022-12-25T11:47:28.308Z,61.33
2022-12-25T11:50:15.902Z,61.43
2022-12-25T11:53:03.458Z,61.97
2022-12-25T11:55:51.060Z,61.84
2022-12-25T11:58:38.636Z,62.40
2022-12-25T12:01:26.228Z,60.88
2022-12-25T12:04:13.983Z,60.46
2022-12-25T12:07:03.612Z,59.76
2022-12-25T12:09:51.200Z,59.61
2022-12-25T12:12:43.110Z,60.44
2022-12-25T12:15:34.318Z,60.23
2022-12-25T12:18:21.899Z,60.90
2022-12-25T12:21:09.458Z,60.14
2022-12-25T12:23:57.022Z,58.74
2022-12-25T12:26:44.617Z,59.54
2022-12-25T12:29:32.186Z,60.24
2022-12-25T12:32:19.765Z,60.32
2022-12-25T12:35:07.367Z,60.48
2022-12-25T12:37:54.948Z,59.71
2022-12-25T12:40:42.644Z,59.62
2022-12-25T12:43:30.211Z,59.49
2022-12-25T12:46:17.968Z,60.13
2022-12-25T12:49:05.799Z,60.61
2022-12-25T12:51:53.397Z,61.50
2022-12-25T12:54:40.956Z,61.11
2022-12-25T12:57:28.529Z,60.99
2022-12-25T13:00:16.131Z,61.11
2022-12-25T13:03:03.773Z,61.52
2022-12-25T13:05:51.383Z,61.91
2022-12-25T13:08:38.963Z,62.59
2022-12-25T13:11:26.506Z,61.48
2022-12-25T13:14:14.092Z,60.72
2022-12-25T13:17:01.728Z,61.96
2022-12-25T13:19:49.436Z,61.53
2022-12-25T13:22:36.994Z,61.71
2022-12-25T13:25:24.581Z,61.41
2022-12-25T13:28:12.123Z,60.34
2022-12-25T13:30:59.707Z,60.39
2022-12-25T13:33:47.270Z,59.66
2022-12-25T13:36:34.856Z,60.22
2022-12-25T13:39:22.462Z,59.73
2022-12-25T13:42:10.103Z,58.22
2022-12-25T13:44:57.728Z,59.19
2022-12-25T13:47:48.690Z,59.02
2022-12-25T13:50:39.100Z,58.83
2022-12-25T13:53:27.623Z,58.63
2022-12-25T13:56:15.228Z,59.21
2022-12-25T13:59:02.805Z,58.20
2022-12-25T14:01:50.498Z,58.48
2022-12-25T14:04:38.240Z,56.99
2022-12-25T14:07:27.793Z,57.26
2022-12-25T14:10:15.383Z,56.65
2022-12-25T14:13:02.929Z,56.32
2022-12-25T14:15:50.658Z,56.11
2022-12-25T14:18:38.244Z,55.18
2022-12-25T14:21:25.837Z,55.88
2022-12-25T14:24:13.399Z,55.60
2022-12-25T14:27:00.995Z,56.23
2022-12-25T14:29:48.552Z,57.38
2022-12-25T14:32:36.130Z,55.97
2022-12-25T14:35:24.045Z,56.57
2022-12-25T14:38:11.637Z,56.10
2022-12-25T14:40:59.180Z,57.13
2022-12-25T14:43:46.749Z,57.13
2022-12-25T14:46:34.410Z,57.03
2022-12-25T14:49:22.060Z,58.03
2022-12-25T14:52:09.608Z,58.11
2022-12-25T14:54:57.197Z,58.14
2022-12-25T14:57:44.777Z,57.63
2022-12-25T15:00:32.408Z,58.22
2022-12-25T15:03:20.099Z,58.20
2022-12-25T15:06:07.856Z,57.16
2022-12-25T15:08:55.476Z,56.68
2022-12-25T15:11:43.036Z,58.01
2022-12-25T15:14:30.608Z,56.62
2022-12-25T15:17:18.200Z,56.46
2022-12-25T15:20:05.799Z,57.32
2022-12-25T15:23:18.587Z,56.63
2022-12-25T15:26:00.869Z,56.74
2022-12-25T15:28:48.442Z,56.96
2022-12-25T15:31:36.125Z,57.44
2022-12-25T15:34:23.726Z,57.85
2022-12-25T15:37:11.298Z,58.35
2022-12-25T15:40:02.213Z,58.43
2022-12-25T15:42:50.088Z,57.97
2022-12-25T15:45:37.657Z,57.84
2022-12-25T15:48:25.245Z,58.21
2022-12-25T15:51:12.815Z,58.06
2022-12-25T15:54:00.408Z,57.85
2022-12-25T15:56:47.955Z,57.25
2022-12-25T15:59:35.591Z,56.68
2022-12-25T16:02:23.221Z,56.03
2022-12-25T16:05:10.898Z,57.04
2022-12-25T16:07:58.469Z,56.74
2022-12-25T16:10:46.074Z,56.39
2022-12-25T16:13:33.632Z,56.59
2022-12-25T16:16:21.344Z,56.50
2022-12-25T16:19:09.019Z,56.30
2022-12-25T16:21:56.628Z,56.45
2022-12-25T16:24:44.215Z,55.94
2022-12-25T16:27:31.801Z,56.88
2022-12-25T16:30:19.387Z,57.89
2022-12-25T16:33:06.979Z,57.07
2022-12-25T16:35:54.563Z,56.48
2022-12-25T16:38:42.157Z,57.19
2022-12-25T16:41:29.729Z,56.90
2022-12-25T16:44:17.297Z,57.08
2022-12-25T16:47:04.887Z,57.43
2022-12-25T16:49:52.467Z,57.83
2022-12-25T16:52:40.027Z,57.02
2022-12-25T16:55:30.219Z,56.62
2022-12-25T16:58:20.083Z,58.54
2022-12-25T17:01:07.649Z,58.42
2022-12-25T17:03:55.294Z,58.40
2022-12-25T17:06:42.941Z,58.44
2022-12-25T17:09:31.554Z,57.84
2022-12-25T17:12:19.164Z,58.76
2022-12-25T17:15:06.745Z,58.13
2022-12-25T17:17:54.283Z,59.21
2022-12-25T17:20:41.875Z,58.85
2022-12-25T17:23:29.418Z,60.53
2022-12-25T17:26:16.988Z,60.24
2022-12-25T17:29:04.545Z,60.61
2022-12-25T17:31:52.188Z,61.46
2022-12-25T17:34:39.793Z,62.50
2022-12-25T17:37:27.390Z,61.26
2022-12-25T17:40:14.947Z,61.85
2022-12-25T17:43:02.543Z,61.36
2022-12-25T17:45:50.087Z,60.64
2022-12-25T17:48:37.664Z,61.55
2022-12-25T17:51:25.254Z,61.89
2022-12-25T17:54:12.853Z,62.32
2022-12-25T17:57:00.408Z,62.42
2022-12-25T17:59:49.986Z,62.41
2022-12-25T18:02:37.624Z,62.76
2022-12-25T18:05:25.310Z,61.78
2022-12-25T18:08:12.876Z,61.99
2022-12-25T18:11:00.473Z,61.88
2022-12-25T18:13:49.097Z,61.58
2022-12-25T18:16:36.783Z,60.90
2022-12-25T18:19:24.394Z,59.36
2022-12-25T18:22:12.049Z,60.39
2022-12-25T18:24:59.646Z,60.39
2022-12-25T18:27:47.246Z,59.95
2022-12-25T18:30:34.822Z,60.78
2022-12-25T18:33:22.402Z,60.48
2022-12-25T18:36:09.974Z,60.76
2022-12-25T18:38:57.538Z,60.67
2022-12-25T18:41:45.123Z,60.63
2022-12-25T18:44:32.717Z,60.47
2022-12-25T18:47:20.290Z,60.30
2022-12-25T18:50:07.845Z,61.47
2022-12-25T18:52:55.408Z,61.21
2022-12-25T18:55:42.987Z,60.58
2022-12-25T18:58:30.574Z,61.80
2022-12-25T19:01:18.346Z,61.81
2022-12-25T19:04:06.210Z,62.67
2022-12-25T19:06:53.783Z,62.23
2022-12-25T19:09:41.369Z,63.08
2022-12-25T19:12:28.938Z,64.07
2022-12-25T19:15:16.496Z,62.46
2022-12-25T19:18:04.055Z,63.29
2022-12-25T19:20:51.626Z,62.37
2022-12-25T19:23:39.193Z,62.42
2022-12-25T19:26:26.761Z,62.61
2022-12-25T19:29:14.344Z,63.59
2022-12-25T19:32:01.903Z,63.94
2022-12-25T19:34:49.525Z,63.27
2022-12-25T19:37:37.093Z,62.71
2022-12-25T19:40:24.718Z,63.66
2022-12-25T19:43:12.318Z,64.45
2022-12-25T19:45:59.963Z,63.90
2022-12-25T19:48:47.615Z,64.22
2022-12-25T19:51:35.187Z,63.93
2022-12-25T19:54:22.789Z,64.40
2022-12-25T19:57:10.343Z,63.29
2022-12-25T19:59:57.929Z,64.05
2022-12-25T20:02:45.604Z,63.25
2022-12-25T20:05:33.276Z,62.38
2022-12-25T20:08:20.867Z,62.34
2022-12-25T20:11:08.454Z,62.10
2022-12-25T20:13:56.028Z,61.93
2022-12-25T20:16:43.654Z,62.20
2022-12-25T20:19:31.282Z,61.69
2022-12-25T20:22:18.859Z,61.79
2022-12-25T20:25:06.437Z,62.73
2022-12-25T20:27:54.001Z,61.91
2022-12-25T20:30:41.576Z,61.64
2022-12-25T20:33:29.127Z,61.25
2022-12-25T20:36:16.704Z,60.39
2022-12-25T20:39:04.386Z,61.09
2022-12-25T20:41:51.941Z,62.73
2022-12-25T20:44:39.519Z,63.50
2022-12-25T20:47:27.078Z,63.43
2022-12-25T20:50:14.658Z,64.04
2022-12-25T20:53:02.254Z,64.29
2022-12-25T20:55:49.840Z,63.48
2022-12-25T20:58:37.424Z,63.62
2022-12-25T21:01:25.125Z,63.13
2022-12-25T21:04:16.263Z,63.13
2022-12-25T21:07:04.308Z,65.07
2022-12-25T21:09:51.978Z,64.76
2022-12-25T21:12:41.510Z,64.64
2022-12-25T21:15:29.121Z,63.97
2022-12-25T21:18:16.704Z,64.53
2022-12-25T21:21:04.313Z,64.19
2022-12-25T21:23:51.866Z,64.63
2022-12-25T21:26:44.410Z,65.45
2022-12-25T21:29:35.304Z,65.79
2022-12-25T21:32:22.870Z,64.79
2022-12-25T21:35:10.432Z,65.50
2022-12-25T21:37:58.068Z,65.17
2022-12-25T21:40:45.661Z,65.48
2022-12-25T21:43:33.214Z,64.89
2022-12-25T21:46:20.877Z,64.30
2022-12-25T21:49:08.468Z,63.66
2022-12-25T21:51:56.060Z,63.70
2022-12-25T21:54:43.661Z,64.28
2022-12-25T21:57:31.218Z,64.22
2022-12-25T22:00:18.801Z,63.17
2022-12-25T22:03:06.561Z,63.93
2022-12-25T22:05:54.198Z,65.11
2022-12-25T22:08:41.757Z,64.43
2022-12-25T22:11:29.334Z,65.51
2022-12-25T22:14:16.898Z,64.19
2022-12-25T22:17:04.509Z,65.98
2022-12-25T22:19:52.073Z,66.38
2022-12-25T22:22:39.646Z,66.86
2022-12-25T22:25:27.202Z,66.36
2022-12-25T22:28:14.765Z,65.75
2022-12-25T22:31:02.413Z,66.06
2022-12-25T22:33:50.055Z,65.77
2022-12-25T22:36:37.640Z,65.41
2022-12-25T22:39:25.251Z,66.38
2022-12-25T22:42:12.820Z,65.76
2022-12-25T22:45:00.383Z,66.15
2022-12-25T22:47:47.997Z,65.01
2022-12-25T22:50:35.579Z,65.65
2022-12-25T22:53:23.141Z,66.16
2022-12-25T22:56:10.754Z,66.07
2022-12-25T22:58:58.356Z,64.74
2022-12-25T23:01:46.007Z,65.36
2022-12-25T23:04:33.616Z,65.60
2022-12-25T23:07:21.184Z,66.73
2022-12-25T23:10:08.762Z,66.47
2022-12-25T23:12:56.332Z,67.32
2022-12-25T23:15:44.008Z,66.84
2022-12-25T23:18:31.567Z,67.11
2022-12-25T23:21:19.166Z,67.70
2022-12-25T23:24:06.752Z,67.99
2022-12-25T23:26:54.334Z,66.83
2022-12-25T23:29:41.996Z,67.35
2022-12-25T23:32:29.548Z,67.27
2022-12-25T23:35:17.139Z,67.82
2022-12-25T23:38:04.683Z,68.02
2022-12-25T23:40:52.278Z,68.74
2022-12-25T23:43:39.837Z,68.92
2022-12-25T23:46:27.456Z,69.30
2022-12-25T23:49:15.093Z,70.38
2022-12-25T23:52:02.688Z,71.81
2022-12-25T23:54:50.249Z,72.07
2022-12-25T23:57:37.814Z,71.55
